WetterOnline ( http://www.wetteronline.de )

Wetter aktuell Helgoland

Aktuelles Wetter: Helgoland/Düne (8m)

6-stündlich | Neueste Meldungen
Ortszeit Temperatur Wetter
Di, 16.10. 20:00 15.1° C bedeckt
Di, 16.10. 14:00 15.9° C bewölkt
Di, 16.10. 8:00 15.7° C bedeckt
Di, 16.10. 2:00 15.1° C bedeckt
Mo, 15.10. 20:00 16.9° C bedeckt
Mo, 15.10. 14:00 16.3° C leicht bewölkt
Mo, 15.10. 8:00 15.3° C wolkenlos
Mo, 15.10. 2:00 16.6° C wolkig
Ortszeit Temperatur Wetter
Mi, 17.10. 1:30 16.1° C bewölkt
Mi, 17.10. 1:20 16.1° C bewölkt
Mi, 17.10. 1:10 16.2° C bewölkt
Mi, 17.10. 1:00 16.5° C wolkig
Mi, 17.10. 0:50 16.5° C wolkig
Mi, 17.10. 0:40 16.4° C wolkig
Mi, 17.10. 0:30 16.5° C fast wolkenlos
Mi, 17.10. 0:00 16.2° C wolkenlos
Di, 16.10. 23:30 16.2° C wolkenlos
Di, 16.10. 23:00 16.2° C fast wolkenlos
Di, 16.10. 22:30 16.0° C wolkig
Ortszeit Relative Feuchte Sichtweite
Di, 16.10. 20:00 95% 4.8 km
Di, 16.10. 14:00 92% 4.4 km
Di, 16.10. 8:00 93% 4.6 km
Di, 16.10. 2:00 94% 3.6 km
Mo, 15.10. 20:00 81% 14 km
Mo, 15.10. 14:00 81% 11 km
Mo, 15.10. 8:00 86% 14 km
Mo, 15.10. 2:00 79% 25 km
Ortszeit Relative Feuchte Sichtweite
Mi, 17.10. 1:30 87% 8 km
Mi, 17.10. 1:20 87% -
Mi, 17.10. 1:10 87% -
Mi, 17.10. 1:00 85% 9 km
Mi, 17.10. 0:50 85% -
Mi, 17.10. 0:40 85% -
Mi, 17.10. 0:30 86% 9 km
Mi, 17.10. 0:00 89% 8 km
Di, 16.10. 23:30 90% 7 km
Di, 16.10. 23:00 90% 6 km
Di, 16.10. 22:30 91% 4.8 km
Ortszeit Niederschlagsmenge Niederschlagsart
Di, 16.10. 20:00 0.0 l/m2 in 12 Std. -
Di, 16.10. 14:00 0.0 l/m2 in 6 Std. -
Di, 16.10. 8:00 0.1 l/m2 in 12 Std. Regen
Di, 16.10. 2:00 0.0 l/m2 in 6 Std. -
Mo, 15.10. 20:00 0.0 l/m2 in 12 Std. -
Mo, 15.10. 14:00 0.0 l/m2 in 6 Std. -
Mo, 15.10. 8:00 0.0 l/m2 in 12 Std. -
Mo, 15.10. 2:00 0.0 l/m2 in 6 Std. -
Ortszeit Niederschlagsmenge Niederschlagsart
Mi, 17.10. 1:30 0.0 l/m2 in 1 Std. -
Mi, 17.10. 1:20 keine Meldung -
Mi, 17.10. 1:10 keine Meldung -
Mi, 17.10. 1:00 0.0 l/m2 in 1 Std. -
Mi, 17.10. 0:50 keine Meldung -
Mi, 17.10. 0:40 keine Meldung -
Mi, 17.10. 0:30 0.0 l/m2 in 1 Std. -
Mi, 17.10. 0:00 0.0 l/m2 in 1 Std. -
Di, 16.10. 23:30 0.0 l/m2 in 1 Std. -
Di, 16.10. 23:00 0.0 l/m2 in 1 Std. -
Di, 16.10. 22:30 0.0 l/m2 in 1 Std. -
Ortszeit Stärke Spitze Richtung
km/h Bft. km/h Grad Sektor
Di, 16.10. 20:00 18 3 29 140° SO
Di, 16.10. 14:00 18 3 25 230° SW
Di, 16.10. 8:00 17 3 22 230° SW
Di, 16.10. 2:00 13 3 15 130° SO
Mo, 15.10. 20:00 4 1 18 270° W
Mo, 15.10. 14:00 14 3 29 170° S
Mo, 15.10. 8:00 17 3 26 160° S
Mo, 15.10. 2:00 25 4 47 170° S
Ortszeit Stärke Spitze Richtung
km/h Bft. km/h Grad Sektor
Mi, 17.10. 1:30 14 3 22 180° S
Mi, 17.10. 1:20 14 3 - 180° S
Mi, 17.10. 1:10 15 3 - 170° S
Mi, 17.10. 1:00 17 3 26 170° S
Mi, 17.10. 0:50 17 3 - 170° S
Mi, 17.10. 0:40 18 3 - 180° S
Mi, 17.10. 0:30 20 4 26 170° S
Mi, 17.10. 0:00 22 4 26 170° S
Di, 16.10. 23:30 20 4 26 170° S
Di, 16.10. 23:00 24 4 28 160° S
Di, 16.10. 22:30 22 4 25 160° S
Ortszeit Untergrenze Bedeckung Gattung
total tief tief mittel hoch
Di, 16.10. 20:00 4500 m 8/8 8/8 - - -
Di, 16.10. 14:00 60 m 8/8 7/8 - - -
Di, 16.10. 8:00 3900 m 8/8 8/8 - - -
Di, 16.10. 2:00 3600 m 8/8 8/8 - - -
Mo, 15.10. 20:00 1500 m 8/8 8/8 - - -
Mo, 15.10. 14:00 9000 m 3/8 0/8 - - -
Mo, 15.10. 8:00 - 0/8 0/8 - - -
Mo, 15.10. 2:00 8700 m 8/8 0/8 - - -
Ortszeit Bedeckungsgrad in Achtel und Wolkenuntergrenze
Mi, 17.10. 1:30 7(3300m) 7(6900m) 8(7500m)
Mi, 17.10. 1:20 7(3300m) 7(6900m) 8(7500m)
Mi, 17.10. 1:10 6(3300m) 6(6900m) 8(7200m)
Mi, 17.10. 1:00 7(7200m) 7(10500m) 8(10500m)
Mi, 17.10. 0:50 7(7200m) 7(10500m)
Mi, 17.10. 0:40 7(7200m) 7(10500m)
Mi, 17.10. 0:30 2(7200m) 4(9000m)
Mi, 17.10. 0:00 keine Wolken
Di, 16.10. 23:30 keine Wolken
Di, 16.10. 23:00 1(7800m)
Di, 16.10. 22:30 1(5400m) 8(8100m) 8(8700m)
Ortszeit Luftdruck NN (hPa) Tendenz (hPa in 3 Std.)
Di, 16.10. 20:00 1019 + 0,3
Di, 16.10. 14:00 1018 + 0,5
Di, 16.10. 8:00 1016 + 0,9
Di, 16.10. 2:00 1015 + 0,5
Mo, 15.10. 20:00 1014 + 1,3
Mo, 15.10. 14:00 1012 + 0,3
Mo, 15.10. 8:00 1011 + 0,7
Mo, 15.10. 2:00 1010 + 0,6
Ortszeit Luftdruck NN (hPa) Tendenz (hPa in 3 Std.)
Mi, 17.10. 1:30 1018 - 0,3
Mi, 17.10. 1:20 1018 keine Meldung
Mi, 17.10. 1:10 1018 keine Meldung
Mi, 17.10. 1:00 1018 - 0,4
Mi, 17.10. 0:50 1018 keine Meldung
Mi, 17.10. 0:40 1018 keine Meldung
Mi, 17.10. 0:30 1018 - 0,4
Mi, 17.10. 0:00 1018 - 0,5
Di, 16.10. 23:30 1018 - 0,4
Di, 16.10. 23:00 1018 - 0,4
Di, 16.10. 22:30 1018 - 0,2
Ortszeit Schneehöhe (cm)
Di, 16.10. 20:00 0
Di, 16.10. 14:00 0
Di, 16.10. 8:00 0
Di, 16.10. 2:00 0
Mo, 15.10. 20:00 0
Mo, 15.10. 14:00 0
Mo, 15.10. 8:00 0
Mo, 15.10. 2:00 0
Ortszeit Schneehöhe (cm)
Mi, 17.10. 1:30 0
Mi, 17.10. 1:20 0
Mi, 17.10. 1:10 0
Mi, 17.10. 1:00 0
Mi, 17.10. 0:50 0
Mi, 17.10. 0:40 0
Mi, 17.10. 0:30 0
Mi, 17.10. 0:00 0
Di, 16.10. 23:30 0
Di, 16.10. 23:00 0
Di, 16.10. 22:30 0
Link zu dieser Seite / Seite empfehlen

Das Wetter in ...